Time;durP1;ratioP1;P1;durP2;ratioP2;P2;SDS_P1;SDS_P2;PMS_P1;PMS_P2;Temp;Humidity;BMP_temperature;BMP_pressure;BME280_temperature;BME280_humidity;BME280_pressure;Samples;Min_cycle;Max_cycle;Signal;HPM_P1;HPM_P2
2022/07/15 00:04:23;;;;;;;1.15;0.50;;;;;;;13.18;100.00;98645.72;15272810;19;20026;-64
2022/07/15 00:15:03;;;;;;;1.60;0.55;;;;;;;12.95;100.00;98651.84;15283126;19;20015;-64
2022/07/15 00:20:13;;;;;;;3.75;0.80;;;;;;;12.84;100.00;98647.66;15281603;19;20020;-65
2022/07/15 00:25:19;;;;;;;1.48;0.50;;;;;;;12.76;100.00;98640.38;15279375;19;20592;-66
2022/07/15 00:30:25;;;;;;;4.03;0.70;;;;;;;12.63;100.00;98645.47;15280838;19;20010;-65
2022/07/15 00:35:34;;;;;;;1.95;0.50;;;;;;;12.55;100.00;98646.28;15269543;19;20053;-65
2022/07/15 00:40:43;;;;;;;1.85;0.60;;;;;;;12.59;100.00;98646.81;15281492;19;20018;-65
2022/07/15 00:45:49;;;;;;;1.73;0.60;;;;;;;12.61;100.00;98648.34;15281590;19;20015;-64
2022/07/15 00:50:57;;;;;;;2.45;0.68;;;;;;;12.62;100.00;98644.63;15274806;19;20368;-63
2022/07/15 00:56:04;;;;;;;2.58;0.80;;;;;;;12.66;100.00;98652.38;15278154;19;20837;-61
2022/07/15 01:01:10;;;;;;;2.30;0.60;;;;;;;12.64;100.00;98650.69;15277861;19;20038;-65
2022/07/15 01:06:19;;;;;;;2.75;0.70;;;;;;;12.65;100.00;98651.53;15265860;19;20019;-64
2022/07/15 01:11:24;;;;;;;3.03;0.80;;;;;;;12.59;100.00;98654.91;15276986;19;20010;-64
2022/07/15 01:16:29;;;;;;;1.02;0.47;;;;;;;12.46;100.00;98663.53;15274589;19;20476;-62
2022/07/15 01:21:38;;;;;;;3.38;0.80;;;;;;;12.38;100.00;98664.34;15277201;19;20017;-63
2022/07/15 01:26:43;;;;;;;3.38;0.70;;;;;;;12.30;100.00;98676.00;15275506;19;20015;-63
2022/07/15 01:31:51;;;;;;;3.42;0.70;;;;;;;12.22;100.00;98667.88;15282913;19;20577;-64
2022/07/15 01:37:05;;;;;;;1.83;0.55;;;;;;;12.12;100.00;98670.72;15291817;19;20415;-63
2022/07/15 01:42:15;;;;;;;1.13;0.50;;;;;;;12.06;100.00;98673.22;15275527;19;20010;-63
2022/07/15 01:47:21;;;;;;;2.15;0.63;;;;;;;11.99;100.00;98676.59;15289642;19;20031;-63
2022/07/15 01:52:29;;;;;;;1.92;0.60;;;;;;;11.92;100.00;98680.94;15284194;19;20485;-64
2022/07/15 01:57:35;;;;;;;2.85;0.60;;;;;;;11.83;100.00;98681.91;15285823;19;20022;-64
2022/07/15 02:02:40;;;;;;;2.03;0.60;;;;;;;11.79;100.00;98675.16;15284465;19;20018;-63
2022/07/15 02:07:48;;;;;;;2.85;0.60;;;;;;;11.72;100.00;98680.38;15289002;19;20018;-63
2022/07/15 02:12:56;;;;;;;1.63;0.52;;;;;;;11.67;100.00;98682.69;15274973;19;20014;-64
2022/07/15 02:18:06;;;;;;;2.17;0.65;;;;;;;11.64;100.00;98683.03;15287573;19;20504;-64
2022/07/15 02:23:14;;;;;;;2.17;0.55;;;;;;;11.62;100.00;98680.47;15284315;19;20014;-64
2022/07/15 02:28:19;;;;;;;3.83;0.80;;;;;;;11.59;100.00;98678.09;15287895;19;20014;-64
2022/07/15 02:33:24;;;;;;;1.80;0.70;;;;;;;11.58;100.00;98684.53;15290439;19;20033;-64
2022/07/15 02:38:33;;;;;;;1.23;0.60;;;;;;;11.54;100.00;98677.75;15288381;19;20007;-62
2022/07/15 02:43:41;;;;;;;3.67;0.80;;;;;;;11.55;100.00;98676.75;15273575;19;20007;-64
2022/07/15 02:48:49;;;;;;;1.50;0.80;;;;;;;11.62;100.00;98680.47;15283862;19;20010;-65
2022/07/15 02:53:58;;;;;;;2.88;0.80;;;;;;;11.69;100.00;98686.06;15288481;19;20021;-65
2022/07/15 02:59:06;;;;;;;2.30;0.70;;;;;;;11.75;100.00;98684.59;15282389;19;20391;-65
2022/07/15 03:04:11;;;;;;;1.98;0.75;;;;;;;11.82;100.00;98686.47;15278808;19;20046;-65
2022/07/15 03:09:19;;;;;;;2.70;0.70;;;;;;;11.91;100.00;98697.28;15280464;19;20024;-65
2022/07/15 03:14:26;;;;;;;1.75;0.80;;;;;;;11.95;100.00;98691.41;15279173;19;20019;-64
2022/07/15 03:19:34;;;;;;;4.53;1.08;;;;;;;11.98;100.00;98711.88;15280064;19;20010;-65
2022/07/15 03:24:42;;;;;;;5.78;0.90;;;;;;;12.02;100.00;98700.59;15284949;19;20471;-64
2022/07/15 03:29:49;;;;;;;2.78;0.90;;;;;;;12.07;100.00;98704.63;15282288;19;20024;-64
2022/07/15 03:34:56;;;;;;;2.28;0.73;;;;;;;12.14;100.00;98714.63;15282907;19;20366;-65
2022/07/15 03:40:08;;;;;;;1.52;0.75;;;;;;;12.18;100.00;98723.22;15278291;19;20015;-65
2022/07/15 03:45:15;;;;;;;1.80;0.80;;;;;;;12.21;100.00;98720.22;15280775;19;20085;-65
2022/07/15 03:50:21;;;;;;;2.92;0.93;;;;;;;12.26;100.00;98727.81;15266960;19;20466;-64
2022/07/15 03:55:30;;;;;;;1.92;0.80;;;;;;;12.30;100.00;98727.31;15281332;19;20042;-63
2022/07/15 04:00:36;;;;;;;2.97;1.15;;;;;;;12.27;100.00;98741.19;15280885;19;20041;-62
2022/07/15 04:05:41;;;;;;;4.15;1.10;;;;;;;12.22;100.00;98746.22;15281662;19;20038;-63
2022/07/15 04:10:49;;;;;;;4.78;1.40;;;;;;;12.20;100.00;98750.09;15280901;19;20014;-66
2022/07/15 04:15:54;;;;;;;2.97;1.10;;;;;;;12.17;100.00;98759.38;15281810;19;20022;-64
2022/07/15 04:20:59;;;;;;;2.53;1.10;;;;;;;12.17;100.00;98760.22;15263836;19;20042;-64
2022/07/15 04:26:08;;;;;;;3.08;0.98;;;;;;;12.29;100.00;98758.03;15270645;19;20010;-64
2022/07/15 04:31:13;;;;;;;1.95;1.20;;;;;;;12.36;100.00;98752.84;15271677;19;20022;-65
2022/07/15 04:36:29;;;;;;;3.15;1.30;;;;;;;12.42;100.00;98757.59;15273835;19;20017;-65
2022/07/15 04:41:37;;;;;;;2.80;1.30;;;;;;;12.49;100.00;98761.31;15278082;19;20475;-64
2022/07/15 04:46:42;;;;;;;2.63;1.30;;;;;;;12.55;100.00;98767.91;15277444;19;20081;-65
2022/07/15 04:57:44;;;;;;;2.92;1.00;;;;;;;12.68;100.00;98775.56;15272855;19;20010;-66
2022/07/15 05:02:49;;;;;;;3.70;1.13;;;;;;;12.71;100.00;98785.19;15275208;19;20010;-65
2022/07/15 05:07:54;;;;;;;3.08;1.00;;;;;;;12.66;100.00;98785.69;15273495;19;20574;-65
2022/07/15 05:13:04;;;;;;;4.22;1.27;;;;;;;12.73;100.00;98785.88;15276813;19;20011;-63
2022/07/15 05:18:22;;;;;;;4.45;1.30;;;;;;;12.81;100.00;98783.16;15275984;19;20074;-65
2022/07/15 05:23:30;;;;;;;2.40;1.05;;;;;;;12.90;100.00;98790.28;15265559;19;20434;-65
2022/07/15 05:28:42;;;;;;;3.90;1.38;;;;;;;12.98;100.00;98794.03;15274080;19;20333;-64
2022/07/15 05:33:47;;;;;;;4.13;1.35;;;;;;;13.04;100.00;98798.75;15276863;19;20022;-65
2022/07/15 05:38:52;;;;;;;4.53;1.40;;;;;;;13.14;100.00;98802.13;15274982;19;20074;-63
2022/07/15 05:44:01;;;;;;;5.18;1.60;;;;;;;13.22;100.00;98798.59;15273634;19;20011;-62
2022/07/15 05:49:09;;;;;;;3.60;1.40;;;;;;;13.29;100.00;98807.72;15164606;19;20021;-63
2022/07/15 05:54:15;;;;;;;7.60;1.67;;;;;;;13.34;100.00;98804.53;15274117;19;20575;-64
2022/07/15 05:59:25;;;;;;;5.93;1.70;;;;;;;13.37;100.00;98809.56;15260985;19;20025;-63
2022/07/15 06:04:30;;;;;;;3.47;1.40;;;;;;;13.45;100.00;98811.47;15271728;19;20356;-63
2022/07/15 06:09:35;;;;;;;4.97;1.35;;;;;;;13.54;100.00;98808.59;15276497;19;20029;-61
2022/07/15 06:14:45;;;;;;;4.78;1.23;;;;;;;13.67;100.00;98815.34;15270735;19;20641;-64
2022/07/15 06:19:54;;;;;;;2.97;0.90;;;;;;;13.78;100.00;98831.22;15287544;19;20086;-63
2022/07/15 06:24:59;;;;;;;2.00;0.98;;;;;;;13.96;100.00;98825.59;15283942;19;20385;-62
2022/07/15 06:30:09;;;;;;;2.83;0.95;;;;;;;14.13;100.00;98814.69;15275207;19;20043;-59
2022/07/15 06:35:14;;;;;;;2.97;0.93;;;;;;;14.33;100.00;98809.72;15287830;19;20018;-64
2022/07/15 06:40:19;;;;;;;3.58;1.00;;;;;;;14.49;100.00;98804.22;15284573;19;20015;-64
2022/07/15 06:45:27;;;;;;;2.35;0.90;;;;;;;14.55;100.00;98812.66;15283443;19;20022;-65
2022/07/15 06:50:32;;;;;;;2.38;0.90;;;;;;;14.60;100.00;98807.56;15283172;19;20711;-65
2022/07/15 06:55:38;;;;;;;3.80;0.80;;;;;;;14.74;100.00;98808.69;15284390;19;20011;-64
2022/07/15 07:00:47;;;;;;;2.28;0.70;;;;;;;14.89;100.00;98806.91;15272574;19;20039;-64
2022/07/15 07:05:52;;;;;;;3.53;0.80;;;;;;;15.05;100.00;98813.25;15287538;19;20029;-64
2022/07/15 07:10:58;;;;;;;1.95;0.85;;;;;;;15.27;100.00;98816.16;15281862;19;20616;-65
2022/07/15 07:16:07;;;;;;;1.80;0.73;;;;;;;15.56;100.00;98821.66;15284409;19;20019;-65
2022/07/15 07:21:12;;;;;;;3.15;0.75;;;;;;;15.58;100.00;98821.47;15273033;19;20015;-62
2022/07/15 07:26:18;;;;;;;3.33;0.90;;;;;;;15.58;100.00;98824.19;15276103;19;20007;-62
2022/07/15 07:31:26;;;;;;;1.55;0.70;;;;;;;15.65;100.00;98821.56;15263936;19;20115;-61
2022/07/15 07:36:31;;;;;;;2.65;0.73;;;;;;;15.68;100.00;98819.34;15264457;19;20006;-62
2022/07/15 07:41:37;;;;;;;2.17;0.70;;;;;;;15.93;100.00;98813.69;15277050;19;20023;-62
2022/07/15 07:46:45;;;;;;;1.40;0.75;;;;;;;16.18;100.00;98813.41;15279913;19;20615;-62
2022/07/15 07:51:50;;;;;;;2.85;0.90;;;;;;;16.16;100.00;98815.47;15283221;19;20381;-62
2022/07/15 07:56:55;;;;;;;1.75;0.60;;;;;;;16.35;100.00;98813.22;15279509;19;20025;-63
2022/07/15 08:02:03;;;;;;;2.63;0.80;;;;;;;16.61;100.00;98819.00;15281242;19;20018;-63
2022/07/15 08:07:11;;;;;;;2.90;0.70;;;;;;;16.67;100.00;98819.25;15271251;19;20018;-63
2022/07/15 08:12:16;;;;;;;1.63;0.70;;;;;;;16.69;100.00;98825.34;15280253;19;20017;-63
2022/07/15 08:17:24;;;;;;;3.28;0.60;;;;;;;16.80;100.00;98824.84;15280104;19;20011;-63
2022/07/15 08:22:31;;;;;;;2.60;0.90;;;;;;;16.90;100.00;98819.94;15281048;19;20014;-63
2022/07/15 08:27:36;;;;;;;3.97;0.70;;;;;;;16.84;100.00;98826.16;15282047;19;20590;-63
2022/07/15 08:32:44;;;;;;;2.58;0.98;;;;;;;16.94;100.00;98824.00;15280668;19;20010;-63
2022/07/15 08:37:49;;;;;;;2.42;0.80;;;;;;;17.00;100.00;98819.66;15270978;19;20006;-63
2022/07/15 08:42:55;;;;;;;2.22;0.80;;;;;;;17.03;100.00;98824.72;15279270;19;20043;-64
2022/07/15 08:48:05;;;;;;;3.00;0.80;;;;;;;17.04;100.00;98826.41;15280331;19;20542;-62
2022/07/15 08:53:11;;;;;;;1.88;0.80;;;;;;;17.13;100.00;98818.94;15278548;19;20110;-64
2022/07/15 08:58:16;;;;;;;2.22;0.60;;;;;;;17.12;100.00;98822.69;15275837;19;20639;-62
2022/07/15 09:03:44;;;;;;;1.50;0.70;;;;;;;17.29;100.00;98827.91;15278631;19;20018;-61
2022/07/15 09:08:49;;;;;;;2.15;0.80;;;;;;;17.35;100.00;98827.97;15273215;19;20014;-67
2022/07/15 09:13:55;;;;;;;2.20;0.70;;;;;;;17.59;100.00;98825.00;15276561;19;20456;-64
2022/07/15 09:19:03;;;;;;;1.77;0.80;;;;;;;17.71;100.00;98826.16;15276781;19;20021;-64
2022/07/15 09:24:19;;;;;;;1.67;0.70;;;;;;;17.42;100.00;98819.84;15276598;19;20090;-62
2022/07/15 09:36:01;;;;;;;2.83;0.80;;;;;;;17.62;98.25;98820.03;15277014;19;20018;-62
2022/07/15 09:40:35;;;;;;;2.40;0.82;;;;;;;17.75;100.00;98816.56;15273783;19;20006;-64
2022/07/15 09:45:40;;;;;;;1.25;0.70;;;;;;;18.05;91.29;98815.53;15260722;19;20007;-64
2022/07/15 09:50:48;;;;;;;3.22;0.90;;;;;;;18.04;90.48;98817.41;15279406;19;20015;-63
2022/07/15 09:55:55;;;;;;;1.85;0.80;;;;;;;18.40;90.93;98805.44;15287018;19;20026;-62
2022/07/15 10:01:03;;;;;;;3.00;0.80;;;;;;;18.66;86.65;98813.94;15291976;19;20497;-63
2022/07/15 10:06:14;;;;;;;2.53;0.90;;;;;;;18.56;85.85;98826.09;15290280;19;20026;-65
2022/07/15 10:11:21;;;;;;;3.53;0.90;;;;;;;18.45;89.88;98816.59;15291772;19;20014;-63
2022/07/15 10:16:47;;;;;;;2.47;0.80;;;;;;;18.41;85.16;98826.19;15281725;19;20014;-62
2022/07/15 10:22:07;;;;;;;2.53;0.80;;;;;;;18.39;86.49;98819.28;15285537;19;20089;-61
2022/07/15 10:27:32;;;;;;;2.15;0.73;;;;;;;18.32;82.12;98828.28;15287263;19;20023;-59
2022/07/15 10:33:10;;;;;;;1.65;0.70;;;;;;;18.18;78.10;98821.06;15286819;19;20010;-62
2022/07/15 10:38:40;;;;;;;1.20;0.63;;;;;;;18.36;79.88;98814.22;15290418;19;20043;-61
2022/07/15 10:43:54;;;;;;;3.15;0.80;;;;;;;18.42;75.63;98808.78;15287952;19;20021;-62
2022/07/15 10:49:33;;;;;;;2.33;0.70;;;;;;;18.57;76.06;98800.47;15276524;19;20006;-62
2022/07/15 10:54:46;;;;;;;1.85;0.70;;;;;;;18.55;75.04;98802.56;15286767;19;20018;-61
2022/07/15 10:59:53;;;;;;;1.92;0.70;;;;;;;18.60;74.79;98786.41;15288490;19;20018;-61
2022/07/15 11:05:20;;;;;;;2.10;0.70;;;;;;;18.90;71.90;98780.63;15282127;19;20362;-60
2022/07/15 11:10:29;;;;;;;1.88;0.80;;;;;;;19.32;73.38;98777.78;15282104;19;20027;-61
2022/07/15 11:15:36;;;;;;;3.30;0.82;;;;;;;19.24;67.16;98808.88;15285696;19;20010;-63
2022/07/15 11:20:42;;;;;;;3.05;0.77;;;;;;;19.01;67.77;98783.84;15272964;19;20014;-62
2022/07/15 11:25:50;;;;;;;1.92;0.50;;;;;;;18.97;68.37;98786.13;15283217;19;20010;-62
2022/07/15 11:30:58;;;;;;;1.60;0.70;;;;;;;19.14;66.86;98783.00;15286899;19;20029;-59
2022/07/15 11:36:06;;;;;;;3.20;0.73;;;;;;;18.97;66.26;98788.88;15288021;19;20015;-61
2022/07/15 11:46:46;;;;;;;2.50;0.77;;;;;;;19.69;61.58;98777.34;15267536;19;20082;-61
2022/07/15 11:51:51;;;;;;;2.55;0.60;;;;;;;19.66;62.70;98775.88;15266785;19;20518;-59
2022/07/15 11:56:59;;;;;;;2.63;0.70;;;;;;;19.62;62.78;98774.59;15275592;19;20046;-60
2022/07/15 12:02:05;;;;;;;2.90;0.70;;;;;;;19.35;63.05;98776.50;15278699;19;20651;-62
2022/07/15 12:07:11;;;;;;;2.53;0.65;;;;;;;19.42;62.35;98773.78;15278397;19;20046;-60
2022/07/15 12:12:20;;;;;;;2.25;0.70;;;;;;;19.48;60.97;98767.47;15281213;19;20011;-62
2022/07/15 12:17:25;;;;;;;2.72;0.70;;;;;;;19.44;60.43;98767.03;15273584;19;20014;-64
2022/07/15 12:22:30;;;;;;;1.95;0.60;;;;;;;19.91;58.56;98756.09;15273747;19;20018;-60
2022/07/15 12:27:39;;;;;;;3.60;0.85;;;;;;;20.11;59.25;98755.19;15274409;19;20723;-63
2022/07/15 12:32:44;;;;;;;3.42;0.57;;;;;;;20.60;58.12;98759.22;15278185;19;20014;-61
2022/07/15 12:37:52;;;;;;;2.15;0.60;;;;;;;20.23;56.88;98755.34;15278983;19;20376;-64
2022/07/15 12:43:01;;;;;;;1.13;0.68;;;;;;;20.21;56.83;98766.53;15274512;19;20368;-64
2022/07/15 12:48:08;;;;;;;2.20;0.75;;;;;;;20.19;56.53;98763.16;15275171;19;20010;-62
2022/07/15 12:53:14;;;;;;;2.20;0.50;;;;;;;20.32;56.39;98757.63;15280948;19;20010;-64
2022/07/15 12:58:27;;;;;;;1.90;0.68;;;;;;;20.17;55.84;98754.31;15263585;19;20448;-63
2022/07/15 13:03:32;;;;;;;3.17;0.85;;;;;;;20.53;53.72;98747.44;15281871;19;20010;-63
2022/07/15 13:08:39;;;;;;;1.52;0.70;;;;;;;20.44;53.43;98749.59;15273998;19;20135;-62
2022/07/15 13:13:47;;;;;;;2.60;0.70;;;;;;;20.47;55.25;98745.59;15282234;19;20482;-65
2022/07/15 13:18:53;;;;;;;1.52;0.60;;;;;;;20.85;55.21;98743.94;15279212;19;20018;-66
2022/07/15 13:23:58;;;;;;;1.90;0.60;;;;;;;20.58;54.19;98752.28;15280861;19;20015;-65
2022/07/15 13:29:06;;;;;;;2.35;0.63;;;;;;;20.28;54.91;98750.94;15278257;19;20042;-64
2022/07/15 13:34:12;;;;;;;2.65;0.75;;;;;;;20.68;53.41;98738.97;15295291;19;20015;-64
2022/07/15 13:39:17;;;;;;;1.77;0.60;;;;;;;21.25;52.92;98744.47;15292123;19;20018;-63
2022/07/15 13:44:32;;;;;;;2.00;0.60;;;;;;;20.72;51.08;98751.13;15291110;19;20015;-64
2022/07/15 13:54:57;;;;;;;3.10;0.80;;;;;;;21.07;50.11;98749.91;15290355;19;20038;-64
2022/07/15 14:00:06;;;;;;;1.65;0.68;;;;;;;21.41;50.93;98739.50;15278932;19;20681;-64
2022/07/15 14:05:13;;;;;;;5.85;0.70;;;;;;;21.69;50.32;98746.47;15288837;19;20555;-63
2022/07/15 14:10:18;;;;;;;2.05;0.70;;;;;;;20.91;50.52;98760.31;15288598;19;20540;-62
2022/07/15 14:15:27;;;;;;;2.55;0.70;;;;;;;21.24;51.33;98745.53;15290263;19;20017;-63
2022/07/15 14:20:41;;;;;;;2.90;0.70;;;;;;;22.01;49.30;98741.66;15286706;19;20092;-64
2022/07/15 14:25:46;;;;;;;2.00;0.60;;;;;;;21.48;49.79;98744.94;15288586;19;20006;-65
2022/07/15 14:30:54;;;;;;;5.90;0.70;;;;;;;21.63;48.39;98739.13;15285120;19;20512;-63
2022/07/15 14:36:00;;;;;;;2.50;0.70;;;;;;;22.17;47.46;98737.47;15283887;19;20071;-63
2022/07/15 14:41:05;;;;;;;4.93;0.63;;;;;;;22.02;48.19;98723.31;15286576;19;20373;-63
2022/07/15 14:46:13;;;;;;;2.88;0.70;;;;;;;21.63;48.20;98730.91;15287347;19;20014;-64
2022/07/15 14:51:19;;;;;;;3.25;0.75;;;;;;;22.19;47.55;98717.19;15285063;19;20023;-64
2022/07/15 14:56:25;;;;;;;34.80;1.52;;;;;;;22.63;46.35;98721.50;15282418;19;20409;-63
2022/07/15 15:01:33;;;;;;;3.38;0.73;;;;;;;22.70;44.65;98732.41;15278233;19;20039;-57
2022/07/15 15:06:38;;;;;;;2.58;0.65;;;;;;;23.07;45.32;98734.19;15259958;19;20015;-59
2022/07/15 15:11:43;;;;;;;2.80;0.60;;;;;;;22.85;44.70;98729.22;15282909;19;20031;-55
2022/07/15 15:16:51;;;;;;;1.52;0.70;;;;;;;22.53;44.44;98739.59;15280239;19;20010;-53
2022/07/15 15:22:08;;;;;;;2.67;0.70;;;;;;;22.45;44.86;98735.28;15281643;19;20018;-55
2022/07/15 15:27:14;;;;;;;13.88;1.30;;;;;;;21.66;46.50;98733.19;15277988;19;20048;-50
2022/07/15 15:32:22;;;;;;;24.58;1.25;;;;;;;22.11;45.94;98738.41;15280898;19;20038;-59
2022/07/15 15:37:27;;;;;;;1.92;0.75;;;;;;;21.61;46.74;98728.41;15272323;19;20023;-56
2022/07/15 15:42:32;;;;;;;2.58;0.68;;;;;;;21.70;46.26;98724.28;15280250;19;20022;-54
2022/07/15 15:47:40;;;;;;;1.92;0.60;;;;;;;22.04;44.72;98726.69;15275745;19;20015;-54
2022/07/15 15:52:45;;;;;;;5.25;0.73;;;;;;;22.34;44.70;98725.88;15280556;19;20036;-58
2022/07/15 15:57:50;;;;;;;8.65;0.90;;;;;;;22.30;44.81;98727.41;15281047;19;20085;-53
2022/07/15 16:03:17;;;;;;;2.30;0.73;;;;;;;22.31;44.36;98712.63;15278335;19;20053;-55
2022/07/15 16:08:23;;;;;;;10.65;0.95;;;;;;;21.82;45.27;98726.28;15265306;19;20022;-56
2022/07/15 16:13:28;;;;;;;7.68;0.90;;;;;;;21.24;46.08;98723.63;15277903;19;20536;-56
2022/07/15 16:18:36;;;;;;;7.88;0.80;;;;;;;20.98;47.08;98729.31;15280589;19;20007;-58
2022/07/15 16:23:41;;;;;;;2.58;0.70;;;;;;;21.22;47.03;98719.44;15278197;19;20077;-56
2022/07/15 16:28:46;;;;;;;3.78;0.73;;;;;;;21.65;46.07;98717.81;15276675;19;20051;-54
2022/07/15 16:33:54;;;;;;;3.65;0.70;;;;;;;22.01;46.12;98713.41;15271464;19;20432;-51
2022/07/15 16:38:59;;;;;;;2.33;0.65;;;;;;;22.36;45.32;98721.00;15275591;19;20040;-54
2022/07/15 16:44:04;;;;;;;7.43;0.90;;;;;;;22.14;44.55;98713.25;15264272;19;20534;-59
2022/07/15 16:49:12;;;;;;;1.30;0.50;;;;;;;22.07;44.73;98698.75;15276140;19;20026;-60
2022/07/15 16:54:17;;;;;;;2.83;0.60;;;;;;;22.34;44.91;98706.69;15272148;19;20006;-56
2022/07/15 16:59:27;;;;;;;3.40;0.75;;;;;;;22.48;43.93;98712.84;15275920;19;20334;-60
2022/07/15 17:04:35;;;;;;;6.28;0.80;;;;;;;22.19;43.82;98714.47;15274720;19;20054;-53
2022/07/15 17:09:40;;;;;;;11.02;1.00;;;;;;;21.50;44.75;98713.47;15276820;19;20790;-52
2022/07/15 17:14:45;;;;;;;1.48;0.73;;;;;;;21.02;45.75;98714.09;15265075;19;20471;-55
2022/07/15 17:19:53;;;;;;;2.08;0.73;;;;;;;20.91;46.05;98705.53;15273610;19;20813;-59
2022/07/15 17:24:58;;;;;;;4.47;0.80;;;;;;;21.19;45.71;98712.50;15272857;19;20014;-55
2022/07/15 17:30:04;;;;;;;2.42;0.70;;;;;;;21.50;45.27;98702.53;15271181;19;20047;-60
2022/07/15 17:35:12;;;;;;;1.50;0.70;;;;;;;21.27;45.35;98714.13;15271131;19;20097;-58
2022/07/15 17:40:17;;;;;;;4.95;0.80;;;;;;;21.21;46.01;98709.53;15274802;19;20039;-58
2022/07/15 17:45:22;;;;;;;3.72;0.70;;;;;;;20.80;46.48;98706.25;15261198;19;20036;-57
2022/07/15 17:50:29;;;;;;;1.83;0.70;;;;;;;21.01;46.96;98709.69;15274492;19;20018;-59
2022/07/15 17:55:34;;;;;;;3.25;0.73;;;;;;;21.00;46.74;98714.34;15271372;19;20017;-58
2022/07/15 18:00:39;;;;;;;1.02;0.60;;;;;;;20.72;46.84;98717.44;15274719;19;20022;-59
2022/07/15 18:05:47;;;;;;;1.35;0.70;;;;;;;20.28;47.05;98717.25;15272093;19;20019;-59
2022/07/15 18:10:52;;;;;;;1.10;0.60;;;;;;;20.39;47.17;98702.06;15271999;19;20022;-59
2022/07/15 18:15:57;;;;;;;1.80;0.50;;;;;;;20.50;47.16;98700.50;15285890;19;20382;-59
2022/07/15 18:21:06;;;;;;;1.42;0.68;;;;;;;20.60;46.52;98704.47;15275559;19;20014;-59
2022/07/15 18:26:10;;;;;;;4.18;0.77;;;;;;;20.27;46.98;98705.47;15284508;19;20006;-59
2022/07/15 18:31:16;;;;;;;4.80;0.80;;;;;;;20.25;46.88;98707.59;15287780;19;20720;-59
2022/07/15 18:36:24;;;;;;;1.55;0.63;;;;;;;20.18;47.93;98709.50;15287527;19;20026;-57
2022/07/15 18:41:29;;;;;;;3.72;0.82;;;;;;;20.07;47.78;98700.09;15286835;19;20011;-58
2022/07/15 18:46:34;;;;;;;5.43;0.90;;;;;;;19.96;48.58;98701.59;15281140;19;20015;-61
2022/07/15 18:51:41;;;;;;;5.07;1.00;;;;;;;19.67;48.31;98701.03;15275940;19;20011;-62
2022/07/15 18:56:47;;;;;;;10.35;0.95;;;;;;;19.47;48.44;98708.41;15284449;19;20483;-60
2022/07/15 19:01:52;;;;;;;12.07;1.00;;;;;;;19.17;48.73;98704.22;15279853;19;20022;-61
2022/07/15 19:07:00;;;;;;;13.00;1.00;;;;;;;19.09;49.67;98704.44;15278921;19;20345;-64
2022/07/15 19:12:06;;;;;;;17.58;1.00;;;;;;;19.05;49.81;98703.19;15280787;19;20244;-64
2022/07/15 19:17:11;;;;;;;7.18;0.65;;;;;;;18.79;50.33;98700.19;15282290;19;20014;-62
2022/07/15 19:22:18;;;;;;;4.20;0.60;;;;;;;18.69;49.43;98705.19;15267856;19;20022;-59
2022/07/15 19:27:24;;;;;;;1.15;0.70;;;;;;;18.44;49.51;98708.50;15277195;19;20011;-62
2022/07/15 19:32:30;;;;;;;2.33;0.70;;;;;;;18.36;49.92;98714.16;15282384;19;20014;-62
2022/07/15 19:37:39;;;;;;;0.90;0.60;;;;;;;18.29;50.79;98721.44;15283472;19;20034;-62
2022/07/15 19:42:50;;;;;;;1.90;0.70;;;;;;;18.27;51.33;98715.38;15280599;19;20010;-61
2022/07/15 19:47:57;;;;;;;3.05;0.70;;;;;;;18.15;51.41;98721.41;15278992;19;20475;-62
2022/07/15 19:53:06;;;;;;;2.08;0.80;;;;;;;18.02;51.28;98729.53;15282725;19;20405;-60
2022/07/15 19:58:11;;;;;;;2.63;0.85;;;;;;;17.91;51.96;98721.91;15268006;19;20026;-62
2022/07/15 20:03:16;;;;;;;0.85;0.60;;;;;;;17.80;52.16;98726.88;15274366;19;20022;-62
2022/07/15 20:08:24;;;;;;;1.52;0.80;;;;;;;17.75;52.86;98737.53;15273589;19;20089;-61
2022/07/15 20:13:29;;;;;;;2.35;0.60;;;;;;;17.74;52.79;98746.75;15276962;19;20015;-60
2022/07/15 20:18:34;;;;;;;5.07;1.10;;;;;;;17.59;54.51;98740.53;15276786;19;20022;-62
2022/07/15 20:23:42;;;;;;;7.50;1.10;;;;;;;17.54;54.84;98738.44;15276628;19;20026;-62
2022/07/15 20:28:47;;;;;;;8.55;1.27;;;;;;;17.49;55.30;98744.47;15269452;19;20014;-61
2022/07/15 20:33:52;;;;;;;9.15;1.20;;;;;;;17.40;57.12;98740.22;15272910;19;20031;-62
2022/07/15 20:39:00;;;;;;;9.77;1.10;;;;;;;17.29;58.24;98743.47;15248453;19;20022;-61
2022/07/15 20:44:05;;;;;;;9.40;1.20;;;;;;;17.19;58.68;98750.09;15274549;19;20519;-62
2022/07/15 20:49:11;;;;;;;5.47;1.08;;;;;;;17.12;58.91;98743.75;15272077;19;20025;-60
2022/07/15 20:54:21;;;;;;;12.15;1.17;;;;;;;17.04;59.52;98746.63;15271862;19;20030;-60
2022/07/15 20:59:27;;;;;;;9.83;1.10;;;;;;;16.91;60.99;98753.59;15270058;19;20014;-61
2022/07/15 21:04:32;;;;;;;1.58;0.75;;;;;;;16.75;62.51;98742.97;15274171;19;20271;-55
2022/07/15 21:09:41;;;;;;;1.90;0.70;;;;;;;16.62;65.44;98744.50;15265154;19;20059;-56
2022/07/15 21:14:46;;;;;;;3.55;0.93;;;;;;;16.41;65.78;98752.59;15267390;19;20023;-56
2022/07/15 21:19:51;;;;;;;2.08;0.70;;;;;;;16.24;65.17;98763.72;15276248;19;20014;-54
2022/07/15 21:30:24;;;;;;;4.00;0.63;;;;;;;16.15;68.21;98745.84;15266747;19;20038;-56
2022/07/15 21:35:30;;;;;;;2.92;0.60;;;;;;;16.09;72.36;98743.84;15273410;19;20015;-56
2022/07/15 21:40:38;;;;;;;2.90;0.57;;;;;;;16.04;75.46;98747.16;15274978;19;20034;-56
2022/07/15 21:45:43;;;;;;;4.13;0.80;;;;;;;15.95;78.26;98740.97;15263007;19;20018;-57
2022/07/15 21:50:48;;;;;;;9.63;0.90;;;;;;;15.80;80.55;98740.13;15289871;19;20007;-57
2022/07/15 21:55:56;;;;;;;4.30;1.00;;;;;;;15.64;83.90;98746.56;15286390;19;20027;-56
2022/07/15 22:01:01;;;;;;;3.85;0.85;;;;;;;15.39;88.01;98753.06;15288777;19;20019;-58
2022/07/15 22:06:08;;;;;;;5.65;0.80;;;;;;;15.20;91.59;98749.00;15283179;19;20411;-59
2022/07/15 22:11:16;;;;;;;3.03;0.60;;;;;;;15.06;97.79;98752.50;15287840;19;20014;-57
2022/07/15 22:16:22;;;;;;;3.05;0.60;;;;;;;15.03;97.36;98756.44;15288009;19;20043;-58
2022/07/15 22:21:27;;;;;;;1.98;0.80;;;;;;;15.01;97.26;98757.66;15287945;19;20022;-58
2022/07/15 22:26:36;;;;;;;3.38;0.60;;;;;;;14.95;100.00;98753.81;15289119;19;20024;-52
2022/07/15 22:31:41;;;;;;;1.48;0.63;;;;;;;14.90;100.00;98751.63;15285945;19;20014;-53
2022/07/15 22:36:46;;;;;;;2.90;0.70;;;;;;;14.86;100.00;98752.19;15283028;19;20028;-55
2022/07/15 22:41:55;;;;;;;3.22;0.80;;;;;;;14.83;98.88;98756.06;15286973;19;20010;-61
2022/07/15 22:47:00;;;;;;;5.57;0.80;;;;;;;14.75;100.00;98751.59;15282500;19;20014;-55
2022/07/15 22:52:05;;;;;;;4.03;0.75;;;;;;;14.70;100.00;98753.16;15286730;19;20249;-55
2022/07/15 22:57:13;;;;;;;1.98;0.50;;;;;;;14.60;100.00;98754.16;15287330;19;20014;-53
2022/07/15 23:02:20;;;;;;;1.23;0.55;;;;;;;14.46;100.00;98750.34;15283356;19;20021;-56
2022/07/15 23:07:25;;;;;;;2.63;0.50;;;;;;;14.28;100.00;98763.34;15278702;19;20102;-55
2022/07/15 23:18:25;;;;;;;0.98;0.50;;;;;;;14.02;100.00;98759.06;15274558;19;19991;-55
2022/07/15 23:23:31;;;;;;;2.00;0.60;;;;;;;13.92;100.00;98761.13;15282717;19;20050;-56
2022/07/15 23:28:36;;;;;;;3.22;0.88;;;;;;;13.82;100.00;98756.72;15279385;19;20007;-57
2022/07/15 23:33:44;;;;;;;3.75;0.82;;;;;;;13.71;100.00;98757.97;15280040;19;20483;-58
2022/07/15 23:38:49;;;;;;;2.58;0.75;;;;;;;13.64;100.00;98756.13;15279607;19;20006;-62
2022/07/15 23:43:54;;;;;;;1.48;0.60;;;;;;;13.59;100.00;98761.19;15279397;19;20023;-59
2022/07/15 23:49:02;;;;;;;1.42;0.70;;;;;;;13.52;100.00;98761.88;15279978;19;20007;-60
2022/07/15 23:54:08;;;;;;;1.52;0.80;;;;;;;13.44;100.00;98772.75;15274866;19;20021;-58
